Time;durP1;ratioP1;P1;durP2;ratioP2;P2;SDS_P1;SDS_P2;PMS_P1;PMS_P2;Temp;Humidity;BMP_temperature;BMP_pressure;BME280_temperature;BME280_humidity;BME280_pressure;Samples;Min_cycle;Max_cycle;Signal;HPM_P1;HPM_P2
2023/10/22 00:02:02;;;;;;;4.13;2.63;;;;;;;14.98;100.00;98115.69;6101134;23;20610;-81
2023/10/22 00:04:33;;;;;;;6.63;2.50;;;;;;;14.97;100.00;98114.94;6124683;23;20191;-81
2023/10/22 00:07:23;;;;;;;4.50;2.40;;;;;;;14.95;100.00;98111.69;6119515;23;20223;-81
2023/10/22 00:09:54;;;;;;;5.43;2.50;;;;;;;14.93;100.00;98105.00;6125941;23;20230;-81
2023/10/22 00:12:25;;;;;;;6.50;2.70;;;;;;;14.91;100.00;98116.06;6126816;23;20153;-81
2023/10/22 00:14:55;;;;;;;6.97;2.60;;;;;;;14.90;100.00;98122.53;6124748;23;20155;-82
2023/10/22 00:17:26;;;;;;;6.80;3.30;;;;;;;14.87;100.00;98119.59;6077514;23;20219;-81
2023/10/22 00:19:54;;;;;;;5.20;2.80;;;;;;;14.86;100.00;98124.19;6100053;23;20172;-81
2023/10/22 00:22:28;;;;;;;5.67;2.73;;;;;;;14.84;100.00;98120.16;6124577;23;20175;-81
2023/10/22 00:24:57;;;;;;;3.87;2.63;;;;;;;14.83;100.00;98126.66;6123974;23;20202;-82
2023/10/22 00:27:27;;;;;;;5.13;2.60;;;;;;;14.82;100.00;98130.44;6124689;23;20168;-81
2023/10/22 00:29:58;;;;;;;5.17;2.67;;;;;;;14.81;100.00;98129.63;6099014;23;20529;-81
2023/10/22 00:32:37;;;;;;;;;;;;;;;;;;;;;
2023/10/22 00:35:07;;;;;;;6.70;3.13;;;;;;;14.93;100.00;98115.78;6123621;23;20254;-82
2023/10/22 00:37:40;;;;;;;8.40;3.57;;;;;;;14.89;100.00;98117.41;6100606;23;20250;-81
2023/10/22 00:40:13;;;;;;;5.33;3.13;;;;;;;14.90;100.00;98116.31;6076817;23;20695;-81
2023/10/22 00:42:41;;;;;;;5.03;3.40;;;;;;;14.86;100.00;98109.91;6123937;23;20199;-82
2023/10/22 00:45:12;;;;;;;4.30;3.03;;;;;;;14.77;100.00;98112.41;6100559;23;20279;-81
2023/10/22 00:47:43;;;;;;;5.73;3.30;;;;;;;14.76;100.00;98115.38;6124305;23;20156;-81
2023/10/22 00:50:13;;;;;;;8.07;3.83;;;;;;;14.77;100.00;98123.19;6124131;23;20619;-81
2023/10/22 00:52:43;;;;;;;5.90;3.20;;;;;;;14.81;100.00;98120.72;6124292;23;20160;-82
2023/10/22 00:55:13;;;;;;;5.10;3.20;;;;;;;14.84;100.00;98133.63;6124339;23;20235;-81
2023/10/22 00:57:45;;;;;;;5.47;3.27;;;;;;;14.80;100.00;98128.00;6100729;23;20163;-81
2023/10/22 01:00:16;;;;;;;6.60;3.63;;;;;;;14.75;100.00;98132.63;6124788;23;20498;-81
2023/10/22 01:02:48;;;;;;;5.47;4.00;;;;;;;14.74;100.00;98121.06;6100579;23;20168;-82
2023/10/22 01:05:16;;;;;;;4.90;3.47;;;;;;;14.81;100.00;98113.44;6125576;23;20200;-82
2023/10/22 01:07:48;;;;;;;5.80;3.47;;;;;;;14.77;100.00;98120.50;6125535;23;20163;-82
2023/10/22 01:10:16;;;;;;;5.67;3.47;;;;;;;14.78;100.00;98118.59;6100228;23;20246;-81
2023/10/22 01:12:49;;;;;;;5.03;3.47;;;;;;;14.75;100.00;98121.84;6125198;23;20164;-82
2023/10/22 01:15:22;;;;;;;4.67;3.30;;;;;;;14.72;100.00;98117.03;6124167;23;20160;-81
2023/10/22 01:17:56;;;;;;;4.47;3.30;;;;;;;14.69;100.00;98109.53;6123945;23;20198;-81
2023/10/22 01:20:32;;;;;;;4.07;3.00;;;;;;;14.70;100.00;98114.59;6124245;23;20246;-81
2023/10/22 01:23:01;;;;;;;5.43;2.90;;;;;;;14.65;100.00;98120.03;6100801;23;20164;-81
2023/10/22 01:25:29;;;;;;;4.10;2.90;;;;;;;14.62;100.00;98120.63;6076004;23;20205;-81
2023/10/22 01:28:00;;;;;;;4.27;2.70;;;;;;;14.62;100.00;98114.41;6099595;23;20172;-82
2023/10/22 01:30:29;;;;;;;2.57;2.23;;;;;;;14.64;100.00;98112.25;6124523;23;20192;-82
2023/10/22 01:32:59;;;;;;;2.90;2.03;;;;;;;14.63;100.00;98113.34;6100111;23;20260;-81
2023/10/22 01:35:27;;;;;;;3.07;1.90;;;;;;;14.69;100.00;98120.31;6099963;23;20226;-82
2023/10/22 01:37:55;;;;;;;2.47;1.90;;;;;;;14.78;100.00;98121.31;6099817;23;20169;-82
2023/10/22 01:40:23;;;;;;;2.23;1.57;;;;;;;14.83;100.00;98118.56;6124465;23;20242;-81
2023/10/22 01:42:54;;;;;;;1.30;1.30;;;;;;;14.89;100.00;98120.09;6099998;23;20174;-82
2023/10/22 01:45:24;;;;;;;1.40;1.30;;;;;;;15.02;100.00;98127.56;6125392;23;20198;-81
2023/10/22 01:47:51;;;;;;;1.43;1.30;;;;;;;15.07;100.00;98122.09;6099638;23;20172;-81
2023/10/22 01:50:23;;;;;;;1.50;1.40;;;;;;;15.16;100.00;98120.41;6100280;23;20176;-82
2023/10/22 01:52:53;;;;;;;1.67;1.20;;;;;;;15.16;100.00;98122.28;6123882;23;20175;-81
2023/10/22 01:55:23;;;;;;;1.30;1.20;;;;;;;15.23;100.00;98125.44;6125413;23;20615;-81
2023/10/22 01:57:55;;;;;;;4.67;1.17;;;;;;;15.26;100.00;98131.06;6125312;23;20195;-81
2023/10/22 02:00:24;;;;;;;1.00;1.00;;;;;;;15.24;100.00;98137.84;6100397;23;20234;-81
2023/10/22 02:02:58;;;;;;;1.50;1.10;;;;;;;15.30;100.00;98140.19;6123466;23;20235;-81
2023/10/22 02:05:40;;;;;;;1.27;0.93;;;;;;;15.28;100.00;98144.28;6124179;23;20179;-81
2023/10/22 02:08:11;;;;;;;1.20;1.10;;;;;;;15.29;100.00;98140.50;6099990;23;20172;-82
2023/10/22 02:10:40;;;;;;;1.20;1.10;;;;;;;15.26;100.00;98138.34;6125140;23;20168;-81
2023/10/22 02:13:10;;;;;;;1.10;1.00;;;;;;;15.30;100.00;98139.41;6123404;23;20254;-81
2023/10/22 02:15:41;;;;;;;1.60;1.10;;;;;;;15.28;100.00;98142.38;6122923;23;20168;-81
2023/10/22 02:18:11;;;;;;;1.03;0.93;;;;;;;15.29;100.00;98141.31;6123183;23;20258;-81
2023/10/22 02:20:58;;;;;;;1.43;1.00;;;;;;;15.44;100.00;98156.53;6123329;23;20218;-81
2023/10/22 02:23:32;;;;;;;0.90;0.90;;;;;;;15.42;100.00;98154.13;6123496;23;20163;-82
2023/10/22 02:26:01;;;;;;;2.23;0.70;;;;;;;15.39;100.00;98156.59;6077296;23;20207;-82
2023/10/22 02:28:29;;;;;;;0.80;0.80;;;;;;;15.35;100.00;98169.03;6099457;23;20167;-81
2023/10/22 02:30:57;;;;;;;0.90;0.90;;;;;;;15.39;100.00;98170.09;6099425;23;20168;-81
2023/10/22 02:33:29;;;;;;;0.80;0.80;;;;;;;15.37;100.00;98166.84;6123458;23;20913;-81
2023/10/22 02:35:59;;;;;;;0.70;0.70;;;;;;;15.53;100.00;98172.94;6125084;23;20168;-81
2023/10/22 02:38:30;;;;;;;1.43;0.70;;;;;;;15.50;100.00;98178.84;6123592;23;20176;-81
2023/10/22 02:41:00;;;;;;;1.37;0.60;;;;;;;15.49;100.00;98179.97;6099601;23;20168;-81
2023/10/22 02:43:33;;;;;;;0.60;0.60;;;;;;;15.35;100.00;98182.53;6099490;23;20172;-81
2023/10/22 02:46:00;;;;;;;1.00;0.63;;;;;;;15.31;100.00;98189.56;6124949;23;20187;-81
2023/10/22 02:48:32;;;;;;;0.60;0.53;;;;;;;15.24;100.00;98199.91;6123533;23;20243;-82
2023/10/22 02:51:14;;;;;;;0.50;0.50;;;;;;;15.41;100.00;98194.88;6123826;23;20255;-82
2023/10/22 02:53:44;;;;;;;0.70;0.50;;;;;;;15.44;100.00;98197.03;6124649;23;20190;-81
2023/10/22 02:56:15;;;;;;;0.67;0.60;;;;;;;15.30;100.00;98196.84;6125253;23;20179;-82
2023/10/22 02:58:49;;;;;;;0.50;0.40;;;;;;;15.31;100.00;98211.16;6100076;23;20163;-82
2023/10/22 03:01:18;;;;;;;0.40;0.40;;;;;;;15.25;100.00;98209.63;6123973;23;20182;-81
2023/10/22 03:03:46;;;;;;;1.40;0.50;;;;;;;15.16;100.00;98211.31;6123363;23;20211;-81
2023/10/22 03:06:18;;;;;;;1.90;0.50;;;;;;;15.10;100.00;98217.84;6099614;23;20238;-81
2023/10/22 03:08:48;;;;;;;1.03;0.40;;;;;;;15.24;100.00;98224.19;6099014;23;20215;-81
2023/10/22 03:11:18;;;;;;;0.73;0.47;;;;;;;15.16;100.00;98227.50;6100198;23;20179;-82
2023/10/22 03:13:51;;;;;;;0.60;0.57;;;;;;;15.06;100.00;98224.88;6123025;23;20175;-81
2023/10/22 03:16:24;;;;;;;1.00;0.40;;;;;;;14.95;100.00;98232.25;6077502;23;20164;-82
2023/10/22 03:18:55;;;;;;;0.50;0.40;;;;;;;15.08;100.00;98234.28;6098760;23;20194;-81
2023/10/22 03:21:25;;;;;;;1.50;0.40;;;;;;;15.01;100.00;98244.59;6099400;23;20172;-81
2023/10/22 03:23:56;;;;;;;0.40;0.30;;;;;;;14.94;100.00;98255.69;6123867;23;20232;-81
2023/10/22 03:26:24;;;;;;;0.20;0.20;;;;;;;15.04;100.00;98252.13;6123955;23;20186;-82
2023/10/22 03:28:52;;;;;;;0.30;0.30;;;;;;;15.00;100.00;98253.78;6124643;23;20191;-81
2023/10/22 03:31:21;;;;;;;0.40;0.30;;;;;;;14.89;100.00;98261.13;6126330;23;20194;-82
2023/10/22 03:33:50;;;;;;;1.37;0.50;;;;;;;14.86;100.00;98268.97;6125168;23;20170;-82
2023/10/22 03:36:18;;;;;;;0.30;0.27;;;;;;;14.98;100.00;98270.22;6126518;23;20163;-82
2023/10/22 03:38:46;;;;;;;0.30;0.30;;;;;;;14.98;100.00;98270.22;6100777;23;20178;-81
2023/10/22 03:41:16;;;;;;;0.50;0.40;;;;;;;15.02;100.00;98267.81;6125149;23;20172;-81
2023/10/22 03:43:46;;;;;;;0.60;0.40;;;;;;;15.02;100.00;98286.69;6126259;23;20949;-81
2023/10/22 03:46:21;;;;;;;0.53;0.37;;;;;;;14.99;100.00;98288.03;6079474;23;20211;-81
2023/10/22 03:48:56;;;;;;;0.57;0.30;;;;;;;14.93;100.00;98288.38;6124974;23;20168;-81
2023/10/22 03:51:28;;;;;;;0.43;0.30;;;;;;;14.94;100.00;98298.03;6125240;23;20210;-81
2023/10/22 03:53:57;;;;;;;0.40;0.40;;;;;;;14.98;100.00;98297.19;6124842;23;20172;-81
2023/10/22 03:56:26;;;;;;;0.30;0.30;;;;;;;14.91;100.00;98294.03;6126620;23;20172;-81
2023/10/22 03:58:56;;;;;;;0.40;0.40;;;;;;;14.93;100.00;98291.84;6077911;23;20168;-81
2023/10/22 04:01:24;;;;;;;0.67;0.40;;;;;;;14.94;100.00;98309.63;6126011;23;20384;-81
2023/10/22 04:03:52;;;;;;;1.17;0.40;;;;;;;14.91;100.00;98315.59;6125697;23;20729;-81
2023/10/22 04:06:22;;;;;;;0.43;0.40;;;;;;;14.87;100.00;98321.84;6100789;23;20248;-81
2023/10/22 04:08:55;;;;;;;1.27;0.30;;;;;;;14.85;100.00;98329.38;6101268;23;20172;-81
2023/10/22 04:11:26;;;;;;;0.40;0.40;;;;;;;14.86;100.00;98329.09;6126329;23;20591;-82
2023/10/22 04:13:56;;;;;;;1.40;0.30;;;;;;;14.87;100.00;98344.22;6077598;23;20218;-81
2023/10/22 04:16:28;;;;;;;0.30;0.30;;;;;;;14.93;100.00;98334.22;6124943;23;20176;-81
2023/10/22 04:19:00;;;;;;;1.03;0.40;;;;;;;14.86;100.00;98331.00;6100599;23;20191;-82
2023/10/22 04:21:28;;;;;;;0.40;0.40;;;;;;;14.82;100.00;98351.53;6126346;23;20172;-81
2023/10/22 04:23:57;;;;;;;0.37;0.30;;;;;;;14.83;100.00;98348.56;6126174;23;20175;-81
2023/10/22 04:26:30;;;;;;;0.30;0.30;;;;;;;14.95;100.00;98342.81;6125069;23;20207;-81
2023/10/22 04:29:01;;;;;;;0.53;0.40;;;;;;;14.86;100.00;98356.06;6124393;23;20168;-81
2023/10/22 04:31:31;;;;;;;0.50;0.30;;;;;;;14.83;100.00;98359.34;6077879;23;20250;-81
2023/10/22 04:33:58;;;;;;;0.20;0.20;;;;;;;14.68;100.00;98358.59;6126078;23;20168;-82
2023/10/22 04:36:26;;;;;;;0.20;0.20;;;;;;;14.72;100.00;98365.03;6125585;23;20620;-83
2023/10/22 04:38:54;;;;;;;0.50;0.30;;;;;;;14.72;100.00;98356.94;6124331;23;20263;-82
2023/10/22 04:41:25;;;;;;;0.30;0.20;;;;;;;14.84;100.00;98381.69;6124296;23;20226;-80
2023/10/22 04:44:02;;;;;;;0.50;0.30;;;;;;;14.74;100.00;98377.19;6126098;23;20689;-82
2023/10/22 04:46:29;;;;;;;0.30;0.20;;;;;;;14.77;100.00;98375.81;6124336;23;20242;-82
2023/10/22 04:49:06;;;;;;;0.30;0.30;;;;;;;14.81;100.00;98382.25;6124902;23;20163;-82
2023/10/22 04:51:36;;;;;;;0.20;0.20;;;;;;;14.78;100.00;98394.41;6100185;23;20167;-83
2023/10/22 04:54:06;;;;;;;0.30;0.30;;;;;;;14.83;100.00;98396.28;6126128;23;20148;-81
2023/10/22 04:56:34;;;;;;;0.27;0.27;;;;;;;14.84;100.00;98395.16;6100078;23;20199;-81
2023/10/22 04:59:06;;;;;;;1.80;0.33;;;;;;;14.87;100.00;98406.22;6101080;23;20187;-81
2023/10/22 05:01:34;;;;;;;0.40;0.20;;;;;;;14.84;100.00;98420.25;6099968;23;20518;-81
2023/10/22 05:04:02;;;;;;;0.87;0.30;;;;;;;14.72;100.00;98414.38;6123770;23;20200;-81
2023/10/22 05:06:30;;;;;;;0.77;0.40;;;;;;;14.74;100.00;98414.13;6123709;23;20269;-81
2023/10/22 05:08:58;;;;;;;0.30;0.20;;;;;;;14.88;100.00;98418.59;6123538;23;20180;-81
2023/10/22 05:11:27;;;;;;;0.93;0.30;;;;;;;14.87;100.00;98430.50;6123539;23;20191;-81
2023/10/22 05:14:00;;;;;;;1.70;0.37;;;;;;;14.79;100.00;98439.13;6123895;23;20160;-81
2023/10/22 05:16:28;;;;;;;0.20;0.20;;;;;;;14.80;100.00;98443.47;6122820;23;20202;-81
2023/10/22 05:18:56;;;;;;;0.10;0.10;;;;;;;14.70;100.00;98434.59;6124030;23;20219;-84
2023/10/22 05:21:26;;;;;;;0.27;0.27;;;;;;;14.57;100.00;98445.97;6123371;23;20198;-82
2023/10/22 05:23:53;;;;;;;0.93;0.30;;;;;;;14.43;100.00;98451.91;6123394;23;20179;-81
2023/10/22 05:26:22;;;;;;;0.27;0.20;;;;;;;14.25;100.00;98449.78;6124767;23;20188;-82
2023/10/22 05:28:54;;;;;;;0.20;0.10;;;;;;;14.20;100.00;98446.28;6123702;23;20168;-82
2023/10/22 05:31:24;;;;;;;2.30;0.33;;;;;;;13.99;100.00;98453.56;6099473;23;20583;-81
2023/10/22 05:33:51;;;;;;;1.37;0.30;;;;;;;13.80;100.00;98458.69;6122609;23;20176;-82
2023/10/22 05:36:20;;;;;;;0.70;0.20;;;;;;;13.80;100.00;98464.06;6123948;23;20625;-82
2023/10/22 05:38:54;;;;;;;0.57;0.30;;;;;;;13.87;100.00;98477.25;6100243;23;20669;-81
2023/10/22 05:41:27;;;;;;;0.30;0.30;;;;;;;13.74;100.00;98478.59;6122889;23;20166;-81
2023/10/22 05:43:59;;;;;;;0.20;0.20;;;;;;;13.81;100.00;98483.72;6099038;23;20164;-82
2023/10/22 05:46:33;;;;;;;1.27;0.30;;;;;;;13.81;100.00;98489.88;6099216;23;20653;-81
2023/10/22 05:49:04;;;;;;;0.43;0.30;;;;;;;13.78;100.00;98505.78;6099047;23;20190;-82
2023/10/22 05:51:32;;;;;;;0.47;0.20;;;;;;;13.83;100.00;98506.59;6097083;23;20232;-81
2023/10/22 05:54:05;;;;;;;0.30;0.30;;;;;;;13.90;100.00;98511.72;6124382;23;20201;-82
2023/10/22 05:56:35;;;;;;;0.43;0.20;;;;;;;13.95;100.00;98512.53;6122781;23;20174;-82
2023/10/22 05:59:04;;;;;;;0.20;0.20;;;;;;;14.08;100.00;98520.09;6123380;23;20197;-81
2023/10/22 06:01:38;;;;;;;0.50;0.20;;;;;;;14.14;100.00;98536.25;6121955;23;20702;-82
2023/10/22 06:04:08;;;;;;;1.60;0.23;;;;;;;14.20;100.00;98538.66;6122842;23;20203;-82
2023/10/22 06:06:38;;;;;;;0.27;0.27;;;;;;;14.23;100.00;98535.44;6098163;23;20208;-82
2023/10/22 06:09:06;;;;;;;0.50;0.20;;;;;;;14.31;100.00;98550.25;6099336;23;20202;-82
2023/10/22 06:11:36;;;;;;;0.20;0.13;;;;;;;14.21;100.00;98569.91;6098809;23;20163;-82
2023/10/22 06:14:05;;;;;;;0.50;0.30;;;;;;;14.09;100.00;98564.78;6074907;23;20624;-82
2023/10/22 06:16:44;;;;;;;0.73;0.30;;;;;;;13.97;100.00;98576.88;6078915;23;20255;-84
2023/10/22 06:19:14;;;;;;;0.97;0.30;;;;;;;13.98;100.00;98568.56;6124833;23;20182;-81
2023/10/22 06:21:41;;;;;;;0.83;0.40;;;;;;;13.99;100.00;98588.22;6124355;23;20187;-82
2023/10/22 06:24:10;;;;;;;0.93;0.30;;;;;;;13.97;100.00;98579.59;6124472;23;20178;-83
2023/10/22 06:26:41;;;;;;;0.53;0.30;;;;;;;13.89;100.00;98594.38;6100893;23;20184;-84
2023/10/22 06:29:14;;;;;;;0.20;0.20;;;;;;;13.90;100.00;98601.41;6124391;23;20175;-84
2023/10/22 06:31:42;;;;;;;0.50;0.30;;;;;;;13.75;100.00;98597.84;6076053;23;20262;-83
2023/10/22 06:34:08;;;;;;;0.87;0.30;;;;;;;13.70;100.00;98604.03;6123951;23;20175;-84
2023/10/22 06:36:45;;;;;;;0.20;0.20;;;;;;;13.59;100.00;98597.78;6078453;23;20213;-82
2023/10/22 06:39:21;;;;;;;0.37;0.30;;;;;;;13.58;100.00;98614.19;6101666;23;20171;-83
2023/10/22 06:41:48;;;;;;;0.30;0.30;;;;;;;13.60;100.00;98610.19;6099230;23;20178;-83
2023/10/22 06:44:18;;;;;;;0.97;0.30;;;;;;;13.48;100.00;98619.56;6077310;23;20166;-82
2023/10/22 06:46:46;;;;;;;0.30;0.30;;;;;;;13.45;100.00;98611.97;6075424;23;20229;-82
2023/10/22 06:49:16;;;;;;;0.80;0.30;;;;;;;13.44;100.00;98608.47;6100055;23;20170;-82
2023/10/22 06:51:54;;;;;;;0.30;0.30;;;;;;;13.47;100.00;98610.66;6099494;23;20204;-82
2023/10/22 06:54:22;;;;;;;0.80;0.37;;;;;;;13.38;100.00;98609.56;6100447;23;20176;-82
2023/10/22 06:56:50;;;;;;;1.00;0.30;;;;;;;13.56;100.00;98606.41;6123035;23;20692;-82
2023/10/22 06:59:21;;;;;;;0.40;0.30;;;;;;;13.51;100.00;98608.25;6124317;23;20172;-83
2023/10/22 07:01:49;;;;;;;0.30;0.30;;;;;;;13.52;100.00;98613.38;6125857;23;20172;-82
2023/10/22 07:04:25;;;;;;;0.87;0.40;;;;;;;13.64;100.00;98613.97;6103121;23;20210;-82
2023/10/22 07:06:57;;;;;;;0.50;0.30;;;;;;;13.72;100.00;98615.31;6124782;23;20221;-82
2023/10/22 07:09:24;;;;;;;1.33;0.30;;;;;;;13.87;100.00;98623.44;6100774;23;20166;-83
2023/10/22 07:11:51;;;;;;;0.30;0.20;;;;;;;13.79;100.00;98620.47;6100333;23;20253;-82
2023/10/22 07:14:19;;;;;;;0.57;0.40;;;;;;;13.76;100.00;98619.13;6100117;23;20259;-83
2023/10/22 07:16:49;;;;;;;0.30;0.30;;;;;;;13.83;100.00;98622.38;6076848;23;20170;-82
2023/10/22 07:19:21;;;;;;;1.23;0.40;;;;;;;13.82;100.00;98626.13;6101284;23;20697;-84
2023/10/22 07:22:00;;;;;;;0.37;0.30;;;;;;;13.90;100.00;98633.72;6101658;23;20175;-82
2023/10/22 07:24:33;;;;;;;0.30;0.30;;;;;;;13.86;100.00;98646.06;6124806;23;20251;-82
2023/10/22 07:27:01;;;;;;;0.50;0.30;;;;;;;13.95;100.00;98646.38;6126266;23;20216;-81
2023/10/22 07:29:37;;;;;;;0.43;0.30;;;;;;;14.02;100.00;98645.03;6124176;23;20173;-82
2023/10/22 07:32:07;;;;;;;0.27;0.27;;;;;;;14.09;100.00;98640.19;6100030;23;20192;-82
2023/10/22 07:34:37;;;;;;;0.40;0.30;;;;;;;14.30;100.00;98648.31;6101501;23;20170;-82
2023/10/22 07:37:05;;;;;;;0.20;0.20;;;;;;;14.48;100.00;98640.56;6125857;23;20817;-81
2023/10/22 07:39:36;;;;;;;0.97;0.23;;;;;;;14.53;100.00;98653.22;6101276;23;20227;-83
2023/10/22 07:42:09;;;;;;;0.40;0.20;;;;;;;14.61;100.00;98655.38;6101650;23;20266;-82
2023/10/22 07:44:40;;;;;;;0.33;0.27;;;;;;;14.70;100.00;98647.56;6101731;23;20274;-83
2023/10/22 07:47:09;;;;;;;0.27;0.27;;;;;;;14.82;100.00;98648.94;6101460;23;20633;-82
2023/10/22 07:49:39;;;;;;;0.80;0.20;;;;;;;14.70;100.00;98663.75;6077214;23;20283;-83
2023/10/22 07:52:09;;;;;;;0.40;0.20;;;;;;;14.80;100.00;98658.34;6077356;23;20163;-82
2023/10/22 07:54:42;;;;;;;0.20;0.20;;;;;;;14.80;100.00;98669.94;6100057;23;20619;-83
2023/10/22 07:57:09;;;;;;;0.40;0.20;;;;;;;14.81;100.00;98666.19;6099753;23;20182;-82
2023/10/22 07:59:42;;;;;;;0.30;0.30;;;;;;;14.88;100.00;98665.91;6124491;23;20168;-82
2023/10/22 08:02:10;;;;;;;0.83;0.37;;;;;;;14.81;100.00;98659.97;6125439;23;20174;-82
2023/10/22 08:04:37;;;;;;;0.83;0.20;;;;;;;14.73;100.00;98677.50;6075418;23;20262;-82
2023/10/22 08:07:06;;;;;;;0.37;0.30;;;;;;;14.81;100.00;98682.38;6123199;23;20227;-82
2023/10/22 08:09:38;;;;;;;0.33;0.10;;;;;;;14.72;100.00;98693.94;6126696;23;20171;-82
2023/10/22 08:12:07;;;;;;;0.20;0.20;;;;;;;14.63;100.00;98704.47;6099560;23;20266;-82
2023/10/22 08:14:36;;;;;;;1.00;0.20;;;;;;;14.60;100.00;98701.50;6100560;23;20175;-82
2023/10/22 08:17:08;;;;;;;0.83;0.30;;;;;;;14.73;100.00;98706.34;6123696;23;20174;-82
2023/10/22 08:19:38;;;;;;;0.40;0.23;;;;;;;14.70;100.00;98723.06;6100029;23;20172;-81
2023/10/22 08:22:09;;;;;;;0.37;0.20;;;;;;;14.63;100.00;98720.63;6123924;23;20195;-82
2023/10/22 08:24:37;;;;;;;1.03;0.27;;;;;;;14.81;100.00;98732.78;6124955;23;20224;-83
2023/10/22 08:27:07;;;;;;;0.77;0.30;;;;;;;14.87;100.00;98732.53;6100314;23;20196;-83
2023/10/22 08:29:39;;;;;;;0.20;0.20;;;;;;;14.99;100.00;98740.34;6126052;23;20176;-82
2023/10/22 08:32:07;;;;;;;0.90;0.30;;;;;;;15.03;100.00;98741.41;6125308;23;20168;-82
2023/10/22 08:34:36;;;;;;;0.40;0.40;;;;;;;15.04;100.00;98734.94;6101081;23;20182;-83
2023/10/22 08:37:09;;;;;;;0.67;0.50;;;;;;;15.13;100.00;98754.09;6099145;23;20180;-84
2023/10/22 08:39:39;;;;;;;0.47;0.30;;;;;;;15.11;100.00;98754.38;6079309;23;20171;-83
2023/10/22 08:42:16;;;;;;;1.13;0.30;;;;;;;15.17;100.00;98750.59;6078262;23;20168;-83
2023/10/22 08:44:52;;;;;;;0.20;0.20;;;;;;;15.07;100.00;98758.69;6104194;23;20175;-83
2023/10/22 08:47:20;;;;;;;0.50;0.30;;;;;;;15.10;100.00;98757.34;6075986;23;20196;-83
2023/10/22 08:49:51;;;;;;;0.87;0.30;;;;;;;15.08;100.00;98763.00;6124304;23;20168;-83
2023/10/22 08:52:22;;;;;;;0.50;0.20;;;;;;;15.17;100.00;98758.69;6101474;23;20164;-83
2023/10/22 08:54:52;;;;;;;0.80;0.33;;;;;;;15.09;100.00;98766.50;6100165;23;20179;-84
2023/10/22 08:57:28;;;;;;;0.63;0.30;;;;;;;15.17;100.00;98766.78;6124181;23;20205;-83
2023/10/22 09:00:07;;;;;;;;;;;;;;;;;;;;;
2023/10/22 09:02:42;;;;;;;0.80;0.50;;;;;;;15.29;100.00;98775.44;6103864;23;20469;-83
2023/10/22 09:05:11;;;;;;;0.40;0.20;;;;;;;15.25;100.00;98773.53;6076959;23;20212;-83
2023/10/22 09:07:49;;;;;;;1.60;0.50;;;;;;;15.34;100.00;98770.03;6125798;23;20194;-83
2023/10/22 09:10:28;;;;;;;0.20;0.20;;;;;;;15.57;100.00;98765.16;6101489;23;20219;-83
2023/10/22 09:13:25;;;;;;;1.93;0.30;;;;;;;15.72;100.00;98773.25;6100506;23;20216;-83
2023/10/22 09:16:03;;;;;;;0.13;0.13;;;;;;;15.81;100.00;98779.72;6102297;23;20191;-82
2023/10/22 09:18:37;;;;;;;0.37;0.30;;;;;;;15.93;100.00;98774.81;6125518;23;20192;-83
2023/10/22 09:21:17;;;;;;;0.30;0.30;;;;;;;16.08;100.00;98772.06;6125688;23;20152;-83
2023/10/22 09:24:04;;;;;;;0.40;0.30;;;;;;;16.31;100.00;98770.59;6122360;23;20172;-83
2023/10/22 09:26:45;;;;;;;1.23;0.30;;;;;;;16.61;100.00;98777.81;6125359;23;20241;-82
2023/10/22 09:29:14;;;;;;;0.90;0.27;;;;;;;16.92;100.00;98781.91;6097731;23;20603;-83
2023/10/22 09:32:08;;;;;;;0.37;0.30;;;;;;;17.11;100.00;98799.09;6077180;23;20164;-83
2023/10/22 09:34:36;;;;;;;0.20;0.20;;;;;;;17.13;100.00;98798.81;6099982;23;20168;-83
2023/10/22 09:37:04;;;;;;;0.80;0.40;;;;;;;17.14;100.00;98800.44;6123799;23;20220;-83
2023/10/22 09:39:45;;;;;;;0.20;0.20;;;;;;;17.11;100.00;98798.28;6100470;23;20707;-82
2023/10/22 09:42:16;;;;;;;0.90;0.20;;;;;;;17.22;100.00;98801.75;6077834;23;20170;-82
2023/10/22 09:44:44;;;;;;;1.27;0.40;;;;;;;17.37;100.00;98804.31;6099764;23;20176;-83
2023/10/22 09:47:21;;;;;;;0.47;0.13;;;;;;;17.63;100.00;98803.03;6099521;23;20192;-83
2023/10/22 09:49:57;;;;;;;0.30;0.20;;;;;;;17.74;100.00;98803.72;6100102;23;20168;-82
2023/10/22 09:52:24;;;;;;;0.40;0.20;;;;;;;17.69;100.00;98804.59;6099805;23;20156;-82
2023/10/22 09:54:54;;;;;;;0.30;0.30;;;;;;;17.70;100.00;98799.97;6100435;23;20211;-83
2023/10/22 09:57:31;;;;;;;0.20;0.20;;;;;;;17.80;100.00;98799.88;6123408;23;20179;-83
2023/10/22 10:00:13;;;;;;;0.20;0.20;;;;;;;17.69;100.00;98801.88;6100317;23;20187;-83
2023/10/22 10:02:40;;;;;;;0.40;0.20;;;;;;;17.80;100.00;98806.13;6079759;23;20168;-82
2023/10/22 10:05:12;;;;;;;0.40;0.20;;;;;;;17.74;100.00;98806.44;6099721;23;20204;-82
2023/10/22 10:07:43;;;;;;;0.87;0.27;;;;;;;17.72;100.00;98812.16;6100482;23;20242;-84
2023/10/22 10:10:12;;;;;;;1.03;0.30;;;;;;;17.63;100.00;98821.19;6075979;23;20258;-82
2023/10/22 10:12:44;;;;;;;0.20;0.20;;;;;;;17.75;100.00;98813.47;6100754;23;20167;-83
2023/10/22 10:15:33;;;;;;;1.10;0.30;;;;;;;17.63;100.00;98821.19;6099872;23;20181;-83
2023/10/22 10:18:01;;;;;;;0.17;0.17;;;;;;;17.72;100.00;98823.00;6123662;23;20193;-82
2023/10/22 10:20:35;;;;;;;0.27;0.23;;;;;;;17.78;100.00;98821.03;6099807;23;20171;-83
2023/10/22 10:23:08;;;;;;;0.63;0.30;;;;;;;17.78;100.00;98818.31;6124097;23;20198;-83
2023/10/22 10:25:42;;;;;;;0.70;0.30;;;;;;;17.84;100.00;98817.19;6123503;23;20177;-82
2023/10/22 10:28:10;;;;;;;0.43;0.20;;;;;;;18.00;100.00;98824.88;6100278;23;20239;-82
2023/10/22 10:30:38;;;;;;;0.23;0.20;;;;;;;18.12;100.00;98823.66;6076247;23;20604;-84
2023/10/22 10:33:07;;;;;;;0.50;0.40;;;;;;;18.15;100.00;98820.41;6125299;23;20180;-82
2023/10/22 10:35:47;;;;;;;0.30;0.20;;;;;;;18.20;100.00;98821.13;6123869;23;20171;-83
2023/10/22 10:38:21;;;;;;;0.40;0.30;;;;;;;18.40;100.00;98817.38;6102114;23;20545;-83
2023/10/22 10:40:53;;;;;;;0.57;0.30;;;;;;;18.59;100.00;98822.84;6101631;23;20172;-83
2023/10/22 10:44:04;;;;;;;0.70;0.40;;;;;;;18.80;100.00;98816.84;6102015;23;20204;-82
2023/10/22 10:46:35;;;;;;;1.10;0.80;;;;;;;19.10;100.00;98823.78;6078180;23;20170;-83
2023/10/22 10:49:03;;;;;;;0.53;0.40;;;;;;;19.38;100.00;98826.59;6100758;23;20184;-82
2023/10/22 10:51:31;;;;;;;0.50;0.37;;;;;;;19.44;100.00;98823.53;6126502;23;20173;-82
2023/10/22 10:54:08;;;;;;;0.30;0.30;;;;;;;19.42;100.00;98824.91;6125609;23;20175;-83
2023/10/22 10:56:49;;;;;;;0.50;0.30;;;;;;;19.57;100.00;98828.22;6125385;23;20678;-83
2023/10/22 10:59:35;;;;;;;1.07;0.33;;;;;;;19.66;100.00;98828.34;6100867;23;20247;-82
2023/10/22 11:02:12;;;;;;;0.40;0.30;;;;;;;19.57;100.00;98828.22;6101417;23;20232;-82
2023/10/22 11:04:46;;;;;;;0.63;0.37;;;;;;;19.27;100.00;98829.47;6123810;23;20197;-84
2023/10/22 11:07:19;;;;;;;0.93;0.20;;;;;;;19.03;100.00;98834.19;6125215;23;20158;-82
2023/10/22 11:09:56;;;;;;;0.40;0.40;;;;;;;19.23;100.00;98827.63;6124631;23;20185;-82
2023/10/22 11:12:24;;;;;;;1.20;0.43;;;;;;;19.12;100.00;98829.72;6125523;23;20173;-83
2023/10/22 11:14:56;;;;;;;0.83;0.40;;;;;;;19.32;100.00;98829.38;6100751;23;20641;-83
2023/10/22 11:17:26;;;;;;;0.60;0.30;;;;;;;19.30;100.00;98822.66;6127016;23;20217;-83
2023/10/22 11:19:59;;;;;;;1.03;0.33;;;;;;;19.45;100.00;98821.63;6101080;23;20170;-83
2023/10/22 11:22:30;;;;;;;0.67;0.40;;;;;;;19.41;100.00;98824.09;6078932;23;20254;-83
2023/10/22 11:25:00;;;;;;;1.10;0.30;;;;;;;19.66;100.00;98829.13;6123967;23;20209;-83
2023/10/22 11:27:30;;;;;;;0.50;0.30;;;;;;;19.99;100.00;98832.63;6101571;23;20173;-83
2023/10/22 11:30:00;;;;;;;1.13;0.40;;;;;;;19.89;100.00;98826.56;6124798;23;20175;-82
2023/10/22 11:32:28;;;;;;;1.00;0.50;;;;;;;19.79;100.00;98822.13;6125146;23;20181;-82
2023/10/22 11:35:07;;;;;;;0.53;0.33;;;;;;;19.92;100.00;98828.69;6125513;23;20168;-82
2023/10/22 11:37:39;;;;;;;0.70;0.43;;;;;;;20.01;100.00;98821.47;6101784;23;20190;-82
2023/10/22 11:40:30;;;;;;;0.53;0.30;;;;;;;19.93;100.00;98822.94;6124488;23;20164;-83
2023/10/22 11:43:05;;;;;;;0.83;0.30;;;;;;;20.07;97.80;98829.22;6124905;23;20176;-82
2023/10/22 11:45:34;;;;;;;0.77;0.30;;;;;;;20.01;100.00;98825.00;6100852;23;20172;-82
2023/10/22 11:48:11;;;;;;;0.73;0.40;;;;;;;20.11;100.00;98824.00;6101594;23;20257;-82